sensor_id;sensor_type;location;lat;lon;timestamp;pressure;altitude;pressure_sealevel;temperature;humidity
17525;BME280;40431;52.198;9.902;2023-08-24T00:00:17;100949.94;;;18.77;100.00
17525;BME280;40431;52.198;9.902;2023-08-24T00:02:44;100950.97;;;18.76;100.00
17525;BME280;40431;52.198;9.902;2023-08-24T00:05:10;100945.47;;;18.76;100.00
17525;BME280;40431;52.198;9.902;2023-08-24T00:07:38;100948.78;;;18.70;100.00
17525;BME280;40431;52.198;9.902;2023-08-24T00:10:06;100962.22;;;18.73;100.00
17525;BME280;40431;52.198;9.902;2023-08-24T00:12:34;100955.13;;;18.70;100.00
17525;BME280;40431;52.198;9.902;2023-08-24T00:15:01;100955.53;;;18.66;100.00
17525;BME280;40431;52.198;9.902;2023-08-24T00:17:29;100953.09;;;18.63;100.00
17525;BME280;40431;52.198;9.902;2023-08-24T00:19:55;100949.31;;;18.64;100.00
17525;BME280;40431;52.198;9.902;2023-08-24T00:22:22;100949.31;;;18.64;100.00
17525;BME280;40431;52.198;9.902;2023-08-24T00:24:48;100955.53;;;18.66;100.00
17525;BME280;40431;52.198;9.902;2023-08-24T00:27:14;100966.81;;;18.63;100.00
17525;BME280;40431;52.198;9.902;2023-08-24T00:29:42;100972.53;;;18.29;100.00
17525;BME280;40431;52.198;9.902;2023-08-24T00:32:08;100966.47;;;17.93;100.00
17525;BME280;40431;52.198;9.902;2023-08-24T00:34:35;100965.22;;;17.85;100.00
17525;BME280;40431;52.198;9.902;2023-08-24T00:37:01;100968.16;;;17.73;100.00
17525;BME280;40431;52.198;9.902;2023-08-24T00:39:28;100968.28;;;17.71;100.00
17525;BME280;40431;52.198;9.902;2023-08-24T00:41:54;100960.78;;;17.73;100.00
17525;BME280;40431;52.198;9.902;2023-08-24T00:44:21;100962.78;;;17.71;100.00
17525;BME280;40431;52.198;9.902;2023-08-24T00:46:48;100962.53;;;17.74;100.00
17525;BME280;40431;52.198;9.902;2023-08-24T00:49:15;100965.75;;;17.79;100.00
17525;BME280;40431;52.198;9.902;2023-08-24T00:51:41;100958.78;;;17.75;100.00
17525;BME280;40431;52.198;9.902;2023-08-24T00:54:08;100965.41;;;17.73;100.00
17525;BME280;40431;52.198;9.902;2023-08-24T00:56:34;100948.94;;;17.73;100.00
17525;BME280;40431;52.198;9.902;2023-08-24T00:59:00;100958.25;;;17.81;100.00
17525;BME280;40431;52.198;9.902;2023-08-24T01:01:27;100954.50;;;17.82;100.00
17525;BME280;40431;52.198;9.902;2023-08-24T01:03:55;100950.78;;;17.83;100.00
17525;BME280;40431;52.198;9.902;2023-08-24T01:06:21;100948.75;;;17.85;100.00
17525;BME280;40431;52.198;9.902;2023-08-24T01:08:48;100950.88;;;17.93;100.00
17525;BME280;40431;52.198;9.902;2023-08-24T01:11:20;100946.47;;;18.02;100.00
17525;BME280;40431;52.198;9.902;2023-08-24T01:13:56;100949.69;;;18.07;100.00
17525;BME280;40431;52.198;9.902;2023-08-24T01:16:28;100951.88;;;18.13;100.00
17525;BME280;40431;52.198;9.902;2023-08-24T01:18:58;100951.88;;;18.13;100.00
17525;BME280;40431;52.198;9.902;2023-08-24T01:21:26;100951.63;;;18.16;100.00
17525;BME280;40431;52.198;9.902;2023-08-24T01:23:56;100951.38;;;18.19;100.00
17525;BME280;40431;52.198;9.902;2023-08-24T01:26:28;100953.13;;;18.21;100.00
17525;BME280;40431;52.198;9.902;2023-08-24T01:28:55;100951.56;;;18.28;100.00
17525;BME280;40431;52.198;9.902;2023-08-24T01:31:24;100955.06;;;18.30;100.00
17525;BME280;40431;52.198;9.902;2023-08-24T01:33:51;100955.78;;;18.32;100.00
17525;BME280;40431;52.198;9.902;2023-08-24T01:36:17;100950.03;;;18.35;100.00
17525;BME280;40431;52.198;9.902;2023-08-24T01:38:47;100950.28;;;18.32;100.00
17525;BME280;40431;52.198;9.902;2023-08-24T01:41:22;100940.34;;;18.31;100.00
17525;BME280;40431;52.198;9.902;2023-08-24T01:43:53;100933.81;;;18.32;100.00
17525;BME280;40431;52.198;9.902;2023-08-24T01:46:22;100944.31;;;18.27;100.00
17525;BME280;40431;52.198;9.902;2023-08-24T01:48:51;100940.72;;;18.26;100.00
17525;BME280;40431;52.198;9.902;2023-08-24T01:51:18;100945.59;;;18.23;100.00
17525;BME280;40431;52.198;9.902;2023-08-24T01:53:45;100943.13;;;18.19;100.00
17525;BME280;40431;52.198;9.902;2023-08-24T01:56:12;100944.75;;;18.22;100.00
17525;BME280;40431;52.198;9.902;2023-08-24T01:58:39;100944.13;;;18.18;100.00
17525;BME280;40431;52.198;9.902;2023-08-24T02:01:08;100932.28;;;18.18;100.00
17525;BME280;40431;52.198;9.902;2023-08-24T02:03:35;100937.63;;;18.19;100.00
17525;BME280;40431;52.198;9.902;2023-08-24T02:06:04;100940.38;;;18.19;100.00
17525;BME280;40431;52.198;9.902;2023-08-24T02:08:32;100932.81;;;18.12;100.00
17525;BME280;40431;52.198;9.902;2023-08-24T02:10:58;100934.22;;;18.06;100.00
17525;BME280;40431;52.198;9.902;2023-08-24T02:13:25;100934.16;;;17.96;100.00
17525;BME280;40431;52.198;9.902;2023-08-24T02:16:00;100922.22;;;17.86;100.00
17525;BME280;40431;52.198;9.902;2023-08-24T02:18:28;100931.84;;;17.80;100.00
17525;BME280;40431;52.198;9.902;2023-08-24T02:20:54;100920.25;;;17.77;100.00
17525;BME280;40431;52.198;9.902;2023-08-24T02:23:21;100924.25;;;17.73;100.00
17525;BME280;40431;52.198;9.902;2023-08-24T02:25:47;100917.03;;;17.72;100.00
17525;BME280;40431;52.198;9.902;2023-08-24T02:28:14;100915.28;;;17.70;100.00
17525;BME280;40431;52.198;9.902;2023-08-24T02:30:40;100920.63;;;17.72;100.00
17525;BME280;40431;52.198;9.902;2023-08-24T02:33:06;100916.75;;;17.75;100.00
17525;BME280;40431;52.198;9.902;2023-08-24T02:35:34;100921.66;;;17.71;100.00
17525;BME280;40431;52.198;9.902;2023-08-24T02:38:01;100914.81;;;17.65;100.00
17525;BME280;40431;52.198;9.902;2023-08-24T02:40:27;100913.47;;;17.60;100.00
17525;BME280;40431;52.198;9.902;2023-08-24T02:42:54;100914.47;;;17.59;100.00
17525;BME280;40431;52.198;9.902;2023-08-24T02:45:20;100907.00;;;17.61;100.00
17525;BME280;40431;52.198;9.902;2023-08-24T02:47:46;100903.25;;;17.62;100.00
17525;BME280;40431;52.198;9.902;2023-08-24T02:50:13;100899.47;;;17.63;100.00
17525;BME280;40431;52.198;9.902;2023-08-24T02:52:40;100907.00;;;17.61;100.00
17525;BME280;40431;52.198;9.902;2023-08-24T02:55:08;100899.25;;;17.66;100.00
17525;BME280;40431;52.198;9.902;2023-08-24T02:57:35;100900.72;;;17.70;100.00
17525;BME280;40431;52.198;9.902;2023-08-24T03:00:01;100895.22;;;17.70;100.00
17525;BME280;40431;52.198;9.902;2023-08-24T03:02:28;100893.34;;;17.70;100.00
17525;BME280;40431;52.198;9.902;2023-08-24T03:04:55;100899.72;;;17.71;100.00
17525;BME280;40431;52.198;9.902;2023-08-24T03:07:21;100886.13;;;17.69;100.00
17525;BME280;40431;52.198;9.902;2023-08-24T03:09:49;100884.97;;;17.72;100.00
17525;BME280;40431;52.198;9.902;2023-08-24T03:12:15;100887.72;;;17.72;100.00
17525;BME280;40431;52.198;9.902;2023-08-24T03:14:42;100888.84;;;17.69;100.00
17525;BME280;40431;52.198;9.902;2023-08-24T03:17:08;100887.72;;;17.72;100.00
17525;BME280;40431;52.198;9.902;2023-08-24T03:19:34;100883.66;;;17.66;100.00
17525;BME280;40431;52.198;9.902;2023-08-24T03:22:01;100887.03;;;17.59;100.00
17525;BME280;40431;52.198;9.902;2023-08-24T03:24:27;100889.06;;;17.57;100.00
17525;BME280;40431;52.198;9.902;2023-08-24T03:26:55;100893.94;;;17.53;100.00
17525;BME280;40431;52.198;9.902;2023-08-24T03:29:21;100892.81;;;17.44;100.00
17525;BME280;40431;52.198;9.902;2023-08-24T03:31:48;100902.38;;;17.29;100.00
17525;BME280;40431;52.198;9.902;2023-08-24T03:34:14;100906.38;;;17.13;100.00
17525;BME280;40431;52.198;9.902;2023-08-24T03:36:41;100908.66;;;16.97;100.00
17525;BME280;40431;52.198;9.902;2023-08-24T03:39:08;100903.28;;;16.84;100.00
17525;BME280;40431;52.198;9.902;2023-08-24T03:41:34;100911.25;;;16.76;100.00
17525;BME280;40431;52.198;9.902;2023-08-24T03:44:02;100905.00;;;16.74;100.00
17525;BME280;40431;52.198;9.902;2023-08-24T03:46:29;100904.03;;;16.75;100.00
17525;BME280;40431;52.198;9.902;2023-08-24T03:48:55;100903.03;;;16.76;100.00
17525;BME280;40431;52.198;9.902;2023-08-24T03:51:21;100899.44;;;16.75;100.00
17525;BME280;40431;52.198;9.902;2023-08-24T03:53:48;100884.59;;;16.78;100.00
17525;BME280;40431;52.198;9.902;2023-08-24T03:56:14;100881.75;;;16.79;100.00
17525;BME280;40431;52.198;9.902;2023-08-24T03:58:41;100884.97;;;16.84;100.00
17525;BME280;40431;52.198;9.902;2023-08-24T04:01:11;100895.19;;;16.82;100.00
17525;BME280;40431;52.198;9.902;2023-08-24T04:03:38;100894.94;;;16.85;100.00
17525;BME280;40431;52.198;9.902;2023-08-24T04:06:04;100896.44;;;16.90;100.00
17525;BME280;40431;52.198;9.902;2023-08-24T04:08:31;100893.22;;;16.96;100.00
17525;BME280;40431;52.198;9.902;2023-08-24T04:10:57;100900.03;;;17.01;100.00
17525;BME280;40431;52.198;9.902;2023-08-24T04:13:24;100908.88;;;17.05;100.00
17525;BME280;40431;52.198;9.902;2023-08-24T04:15:50;100904.16;;;17.07;100.00
17525;BME280;40431;52.198;9.902;2023-08-24T04:18:18;100909.66;;;17.07;100.00
17525;BME280;40431;52.198;9.902;2023-08-24T04:20:44;100911.34;;;17.08;100.00
17525;BME280;40431;52.198;9.902;2023-08-24T04:23:12;100918.72;;;17.08;100.00
17525;BME280;40431;52.198;9.902;2023-08-24T04:25:39;100917.38;;;17.02;100.00
17525;BME280;40431;52.198;9.902;2023-08-24T04:28:06;100930.81;;;16.94;100.00
17525;BME280;40431;52.198;9.902;2023-08-24T04:30:32;100931.53;;;16.84;100.00
17525;BME280;40431;52.198;9.902;2023-08-24T04:32:59;100921.09;;;16.78;100.00
17525;BME280;40431;52.198;9.902;2023-08-24T04:35:27;100922.06;;;16.77;100.00
17525;BME280;40431;52.198;9.902;2023-08-24T04:37:53;100914.47;;;16.69;100.00
17525;BME280;40431;52.198;9.902;2023-08-24T04:40:20;100911.75;;;16.69;100.00
17525;BME280;40431;52.198;9.902;2023-08-24T04:42:46;100914.34;;;16.71;100.00
17525;BME280;40431;52.198;9.902;2023-08-24T04:45:13;100910.63;;;16.72;100.00
17525;BME280;40431;52.198;9.902;2023-08-24T04:47:39;100917.34;;;16.79;100.00
17525;BME280;40431;52.198;9.902;2023-08-24T04:50:07;100916.97;;;16.84;100.00
17525;BME280;40431;52.198;9.902;2023-08-24T04:52:35;100924.19;;;16.85;100.00
17525;BME280;40431;52.198;9.902;2023-08-24T04:55:01;100933.53;;;16.82;100.00
17525;BME280;40431;52.198;9.902;2023-08-24T04:57:28;100944.75;;;16.79;100.00
17525;BME280;40431;52.198;9.902;2023-08-24T04:59:55;100937.78;;;16.75;100.00
17525;BME280;40431;52.198;9.902;2023-08-24T05:02:21;100937.78;;;16.75;100.00
17525;BME280;40431;52.198;9.902;2023-08-24T05:04:48;100934.28;;;16.73;100.00
17525;BME280;40431;52.198;9.902;2023-08-24T05:07:14;100927.06;;;16.72;100.00
17525;BME280;40431;52.198;9.902;2023-08-24T05:09:42;100938.50;;;16.77;100.00
17525;BME280;40431;52.198;9.902;2023-08-24T05:12:08;100933.03;;;16.89;100.00
17525;BME280;40431;52.198;9.902;2023-08-24T05:14:35;100937.53;;;17.01;100.00
17525;BME280;40431;52.198;9.902;2023-08-24T05:17:01;100925.56;;;17.13;100.00
17525;BME280;40431;52.198;9.902;2023-08-24T05:19:27;100929.00;;;17.27;100.00
17525;BME280;40431;52.198;9.902;2023-08-24T05:21:54;100925.53;;;17.25;100.00
17525;BME280;40431;52.198;9.902;2023-08-24T05:24:20;100916.19;;;17.27;100.00
17525;BME280;40431;52.198;9.902;2023-08-24T05:26:48;100909.69;;;17.28;100.00
17525;BME280;40431;52.198;9.902;2023-08-24T05:29:14;100905.44;;;17.35;100.00
17525;BME280;40431;52.198;9.902;2023-08-24T05:31:41;100917.97;;;17.49;100.00
17525;BME280;40431;52.198;9.902;2023-08-24T05:34:07;100916.63;;;17.55;100.00
17525;BME280;40431;52.198;9.902;2023-08-24T05:36:33;100921.69;;;17.60;100.00
17525;BME280;40431;52.198;9.902;2023-08-24T05:39:00;100928.41;;;17.67;100.00
17525;BME280;40431;52.198;9.902;2023-08-24T05:41:26;100917.88;;;17.72;100.00
17525;BME280;40431;52.198;9.902;2023-08-24T05:43:54;100924.19;;;17.84;100.00
17525;BME280;40431;52.198;9.902;2023-08-24T05:46:22;100937.00;;;17.95;100.00
17525;BME280;40431;52.198;9.902;2023-08-24T05:48:48;100933.47;;;18.04;100.00
17525;BME280;40431;52.198;9.902;2023-08-24T05:51:15;100943.06;;;18.10;100.00
17525;BME280;40431;52.198;9.902;2023-08-24T05:53:41;100934.56;;;18.13;100.00
17525;BME280;40431;52.198;9.902;2023-08-24T05:56:07;100940.00;;;18.03;100.00
17525;BME280;40431;52.198;9.902;2023-08-24T05:58:34;100938.53;;;17.99;100.00
17525;BME280;40431;52.198;9.902;2023-08-24T06:01:02;100937.75;;;17.97;100.00
17525;BME280;40431;52.198;9.902;2023-08-24T06:03:28;100934.75;;;18.00;100.00
17525;BME280;40431;52.198;9.902;2023-08-24T06:06:00;100932.28;;;17.97;100.00
17525;BME280;40431;52.198;9.902;2023-08-24T06:08:27;100932.03;;;17.89;100.00
17525;BME280;40431;52.198;9.902;2023-08-24T06:10:53;100933.84;;;17.78;100.00
17525;BME280;40431;52.198;9.902;2023-08-24T06:13:20;100932.69;;;17.81;100.00
17525;BME280;40431;52.198;9.902;2023-08-24T06:15:46;100925.81;;;17.86;100.00
17525;BME280;40431;52.198;9.902;2023-08-24T06:18:14;100917.94;;;17.93;100.00
17525;BME280;40431;52.198;9.902;2023-08-24T06:20:41;100909.34;;;17.98;100.00
17525;BME280;40431;52.198;9.902;2023-08-24T06:23:07;100903.56;;;18.01;100.00
17525;BME280;40431;52.198;9.902;2023-08-24T06:25:34;100893.81;;;18.08;100.00
17525;BME280;40431;52.198;9.902;2023-08-24T06:28:01;100893.00;;;18.17;100.00
17525;BME280;40431;52.198;9.902;2023-08-24T06:30:29;100882.22;;;18.26;100.00
17525;BME280;40431;52.198;9.902;2023-08-24T06:32:58;100885.53;;;18.29;100.00
17525;BME280;40431;52.198;9.902;2023-08-24T06:35:25;100882.13;;;18.37;100.00
17525;BME280;40431;52.198;9.902;2023-08-24T06:37:52;100876.09;;;18.43;100.00
17525;BME280;40431;52.198;9.902;2023-08-24T06:40:19;100875.81;;;18.46;100.00
17525;BME280;40431;52.198;9.902;2023-08-24T06:42:45;100864.28;;;18.52;100.00
17525;BME280;40431;52.198;9.902;2023-08-24T06:45:11;100870.38;;;18.56;100.00
17525;BME280;40431;52.198;9.902;2023-08-24T06:47:39;100867.50;;;18.58;100.00
17525;BME280;40431;52.198;9.902;2023-08-24T06:50:06;100871.56;;;18.63;100.00
17525;BME280;40431;52.198;9.902;2023-08-24T06:52:34;100872.16;;;18.67;100.00
17525;BME280;40431;52.198;9.902;2023-08-24T06:55:01;100868.41;;;18.68;100.00
17525;BME280;40431;52.198;9.902;2023-08-24T06:57:27;100867.38;;;18.69;100.00
17525;BME280;40431;52.198;9.902;2023-08-24T06:59:54;100870.44;;;18.76;100.00
17525;BME280;40431;52.198;9.902;2023-08-24T07:02:20;100872.47;;;18.83;100.00
17525;BME280;40431;52.198;9.902;2023-08-24T07:04:47;100870.22;;;18.89;100.00
17525;BME280;40431;52.198;9.902;2023-08-24T07:07:14;100867.38;;;19.00;100.00
17525;BME280;40431;52.198;9.902;2023-08-24T07:09:42;100871.28;;;19.07;100.00
17525;BME280;40431;52.198;9.902;2023-08-24T07:12:09;100871.72;;;19.12;100.00
17525;BME280;40431;52.198;9.902;2023-08-24T07:14:35;100871.28;;;19.17;100.00
17525;BME280;40431;52.198;9.902;2023-08-24T07:17:02;100872.19;;;19.17;100.00
17525;BME280;40431;52.198;9.902;2023-08-24T07:19:28;100871.88;;;19.21;100.00
17525;BME280;40431;52.198;9.902;2023-08-24T07:21:55;100863.06;;;19.27;100.00
17525;BME280;40431;52.198;9.902;2023-08-24T07:24:21;100862.47;;;19.33;100.00
17525;BME280;40431;52.198;9.902;2023-08-24T07:26:52;100857.00;;;19.43;100.00
17525;BME280;40431;52.198;9.902;2023-08-24T07:29:19;100851.19;;;19.56;100.00
17525;BME280;40431;52.198;9.902;2023-08-24T07:31:45;100847.56;;;19.65;100.00
17525;BME280;40431;52.198;9.902;2023-08-24T07:34:12;100842.25;;;19.73;100.00
17525;BME280;40431;52.198;9.902;2023-08-24T07:36:38;100845.84;;;19.83;100.00
17525;BME280;40431;52.198;9.902;2023-08-24T07:39:04;100839.75;;;19.99;100.00
17525;BME280;40431;52.198;9.902;2023-08-24T07:41:31;100830.59;;;20.18;100.00
17525;BME280;40431;52.198;9.902;2023-08-24T07:43:59;100829.47;;;20.39;100.00
17525;BME280;40431;52.198;9.902;2023-08-24T07:46:25;100825.22;;;20.55;100.00
17525;BME280;40431;52.198;9.902;2023-08-24T07:48:51;100820.66;;;20.73;100.00
17525;BME280;40431;52.198;9.902;2023-08-24T07:51:18;100814.47;;;20.89;100.00
17525;BME280;40431;52.198;9.902;2023-08-24T07:53:45;100807.53;;;21.03;100.00
17525;BME280;40431;52.198;9.902;2023-08-24T07:56:11;100807.94;;;21.08;100.00
17525;BME280;40431;52.198;9.902;2023-08-24T07:58:37;100808.03;;;21.16;100.00
17525;BME280;40431;52.198;9.902;2023-08-24T08:01:04;100813.31;;;21.28;100.00
17525;BME280;40431;52.198;9.902;2023-08-24T08:03:31;100806.69;;;21.39;100.00
17525;BME280;40431;52.198;9.902;2023-08-24T08:05:57;100806.47;;;21.32;100.00
17525;BME280;40431;52.198;9.902;2023-08-24T08:08:24;100807.56;;;21.39;100.00
17525;BME280;40431;52.198;9.902;2023-08-24T08:10:58;100804.56;;;21.50;100.00
17525;BME280;40431;52.198;9.902;2023-08-24T08:13:25;100801.91;;;21.59;100.00
17525;BME280;40431;52.198;9.902;2023-08-24T08:15:51;100810.00;;;21.60;100.00
17525;BME280;40431;52.198;9.902;2023-08-24T08:18:19;100805.75;;;21.66;100.00
17525;BME280;40431;52.198;9.902;2023-08-24T08:20:50;100803.22;;;21.73;100.00
17525;BME280;40431;52.198;9.902;2023-08-24T08:23:16;100799.72;;;21.89;100.00
17525;BME280;40431;52.198;9.902;2023-08-24T08:25:43;100807.41;;;22.03;99.80
17525;BME280;40431;52.198;9.902;2023-08-24T08:28:09;100785.03;;;22.14;98.35
17525;BME280;40431;52.198;9.902;2023-08-24T08:30:36;100782.69;;;22.28;98.08
17525;BME280;40431;52.198;9.902;2023-08-24T08:33:03;100780.34;;;22.41;97.35
17525;BME280;40431;52.198;9.902;2023-08-24T08:35:31;100779.56;;;22.57;96.59
17525;BME280;40431;52.198;9.902;2023-08-24T08:37:57;100786.38;;;22.71;96.68
17525;BME280;40431;52.198;9.902;2023-08-24T08:40:25;100789.16;;;22.79;95.39
17525;BME280;40431;52.198;9.902;2023-08-24T08:42:55;100788.50;;;22.85;93.86
17525;BME280;40431;52.198;9.902;2023-08-24T08:45:24;100788.16;;;22.97;94.97
17525;BME280;40431;52.198;9.902;2023-08-24T08:47:51;100786.09;;;23.07;93.84
17525;BME280;40431;52.198;9.902;2023-08-24T08:50:17;100793.03;;;23.11;91.71
17525;BME280;40431;52.198;9.902;2023-08-24T08:52:45;100790.28;;;23.20;88.29
17525;BME280;40431;52.198;9.902;2023-08-24T08:55:11;100785.44;;;23.13;87.83
17525;BME280;40431;52.198;9.902;2023-08-24T08:57:40;100786.63;;;23.11;88.91
17525;BME280;40431;52.198;9.902;2023-08-24T09:00:10;100784.75;;;23.20;90.91
17525;BME280;40431;52.198;9.902;2023-08-24T09:02:39;100778.56;;;23.34;89.45
17525;BME280;40431;52.198;9.902;2023-08-24T09:05:09;100782.03;;;23.36;88.58
17525;BME280;40431;52.198;9.902;2023-08-24T09:07:36;100776.50;;;23.44;89.18
17525;BME280;40431;52.198;9.902;2023-08-24T09:10:07;100772.88;;;23.52;89.68
17525;BME280;40431;52.198;9.902;2023-08-24T09:12:34;100779.06;;;23.62;90.11
17525;BME280;40431;52.198;9.902;2023-08-24T09:15:03;100775.75;;;23.83;88.69
17525;BME280;40431;52.198;9.902;2023-08-24T09:17:30;100764.69;;;23.92;85.99
17525;BME280;40431;52.198;9.902;2023-08-24T09:19:58;100760.88;;;24.01;88.79
17525;BME280;40431;52.198;9.902;2023-08-24T09:22:25;100776.41;;;24.10;86.83
17525;BME280;40431;52.198;9.902;2023-08-24T09:24:51;100760.84;;;24.17;85.00
17525;BME280;40431;52.198;9.902;2023-08-24T09:27:21;100761.50;;;24.28;85.62
17525;BME280;40431;52.198;9.902;2023-08-24T09:29:48;100757.47;;;24.39;83.65
17525;BME280;40431;52.198;9.902;2023-08-24T09:32:15;100747.19;;;24.47;85.22
17525;BME280;40431;52.198;9.902;2023-08-24T09:34:47;100741.44;;;24.57;85.00
17525;BME280;40431;52.198;9.902;2023-08-24T09:37:14;100742.47;;;24.64;81.56
17525;BME280;40431;52.198;9.902;2023-08-24T09:39:41;100744.16;;;24.74;81.61
17525;BME280;40431;52.198;9.902;2023-08-24T09:42:07;100747.44;;;24.77;82.49
17525;BME280;40431;52.198;9.902;2023-08-24T09:44:35;100743.91;;;24.83;82.51
17525;BME280;40431;52.198;9.902;2023-08-24T09:47:01;100750.66;;;24.89;83.84
17525;BME280;40431;52.198;9.902;2023-08-24T09:49:28;100743.44;;;25.03;83.76
17525;BME280;40431;52.198;9.902;2023-08-24T09:51:56;100740.06;;;25.16;82.33
17525;BME280;40431;52.198;9.902;2023-08-24T09:54:26;100736.16;;;25.25;81.31
17525;BME280;40431;52.198;9.902;2023-08-24T09:56:54;100720.69;;;25.31;80.18
17525;BME280;40431;52.198;9.902;2023-08-24T09:59:22;100722.06;;;25.35;77.00
17525;BME280;40431;52.198;9.902;2023-08-24T10:01:51;100722.88;;;25.44;78.67
17525;BME280;40431;52.198;9.902;2023-08-24T10:04:23;100718.56;;;25.56;79.78
17525;BME280;40431;52.198;9.902;2023-08-24T10:06:52;100710.53;;;25.61;77.16
17525;BME280;40431;52.198;9.902;2023-08-24T10:09:22;100706.22;;;25.59;75.80
17525;BME280;40431;52.198;9.902;2023-08-24T10:11:54;100699.81;;;25.58;74.79
17525;BME280;40431;52.198;9.902;2023-08-24T10:14:26;100697.59;;;25.54;74.53
17525;BME280;40431;52.198;9.902;2023-08-24T10:16:56;100692.75;;;25.56;74.61
17525;BME280;40431;52.198;9.902;2023-08-24T10:19:24;100685.66;;;25.68;74.73
17525;BME280;40431;52.198;9.902;2023-08-24T10:21:53;100680.88;;;25.77;71.45
17525;BME280;40431;52.198;9.902;2023-08-24T10:24:22;100680.41;;;25.88;72.25
17525;BME280;40431;52.198;9.902;2023-08-24T10:26:49;100672.84;;;25.97;72.58
17525;BME280;40431;52.198;9.902;2023-08-24T10:29:16;100665.16;;;25.99;70.56
17525;BME280;40431;52.198;9.902;2023-08-24T10:31:44;100671.72;;;26.06;70.16
17525;BME280;40431;52.198;9.902;2023-08-24T10:34:12;100657.63;;;26.08;68.64
17525;BME280;40431;52.198;9.902;2023-08-24T10:36:39;100654.66;;;26.09;67.33
17525;BME280;40431;52.198;9.902;2023-08-24T10:39:06;100646.59;;;26.14;67.48
17525;BME280;40431;52.198;9.902;2023-08-24T10:41:48;100643.97;;;26.28;69.02
17525;BME280;40431;52.198;9.902;2023-08-24T10:44:23;100630.16;;;26.34;68.68
17525;BME280;40431;52.198;9.902;2023-08-24T10:47:05;100631.97;;;26.42;69.60
17525;BME280;40431;52.198;9.902;2023-08-24T10:49:33;100636.72;;;26.48;69.00
17525;BME280;40431;52.198;9.902;2023-08-24T10:52:21;100643.22;;;26.56;67.66
17525;BME280;40431;52.198;9.902;2023-08-24T10:54:48;100642.06;;;26.65;69.15
17525;BME280;40431;52.198;9.902;2023-08-24T10:57:19;100655.72;;;26.81;69.14
17525;BME280;40431;52.198;9.902;2023-08-24T10:59:57;100642.97;;;26.87;67.92
17525;BME280;40431;52.198;9.902;2023-08-24T11:02:24;100651.75;;;26.91;67.30
17525;BME280;40431;52.198;9.902;2023-08-24T11:05:05;100648.69;;;26.86;62.15
17525;BME280;40431;52.198;9.902;2023-08-24T11:07:32;100644.94;;;26.93;63.58
17525;BME280;40431;52.198;9.902;2023-08-24T11:09:58;100651.22;;;27.02;64.07
17525;BME280;40431;52.198;9.902;2023-08-24T11:12:25;100638.44;;;27.08;62.04
17525;BME280;40431;52.198;9.902;2023-08-24T11:14:53;100630.13;;;27.14;61.37
17525;BME280;40431;52.198;9.902;2023-08-24T11:17:24;100632.50;;;27.17;58.96
17525;BME280;40431;52.198;9.902;2023-08-24T11:19:52;100631.72;;;27.24;59.39
17525;BME280;40431;52.198;9.902;2023-08-24T11:22:22;100625.59;;;27.35;61.56
17525;BME280;40431;52.198;9.902;2023-08-24T11:24:49;100622.53;;;27.52;59.96
17525;BME280;40431;52.198;9.902;2023-08-24T11:27:15;100618.00;;;27.50;53.72
17525;BME280;40431;52.198;9.902;2023-08-24T11:29:42;100618.00;;;27.50;57.50
17525;BME280;40431;52.198;9.902;2023-08-24T11:32:08;100632.81;;;27.51;57.55
17525;BME280;40431;52.198;9.902;2023-08-24T11:34:35;100628.34;;;27.57;56.93
17525;BME280;40431;52.198;9.902;2023-08-24T11:37:02;100616.78;;;27.60;55.88
17525;BME280;40431;52.198;9.902;2023-08-24T11:39:30;100625.38;;;27.65;56.07
17525;BME280;40431;52.198;9.902;2023-08-24T11:41:59;100615.56;;;27.69;53.71
17525;BME280;40431;52.198;9.902;2023-08-24T11:44:26;100596.09;;;27.76;51.06
17525;BME280;40431;52.198;9.902;2023-08-24T11:46:52;100584.97;;;27.82;51.50
17525;BME280;40431;52.198;9.902;2023-08-24T11:49:19;100579.22;;;27.91;48.21
17525;BME280;40431;52.198;9.902;2023-08-24T11:51:45;100585.25;;;27.94;47.94
17525;BME280;40431;52.198;9.902;2023-08-24T11:54:16;100571.81;;;28.05;51.55
17525;BME280;40431;52.198;9.902;2023-08-24T11:56:44;100569.91;;;28.12;49.21
17525;BME280;40431;52.198;9.902;2023-08-24T11:59:12;100565.22;;;28.19;48.89
17525;BME280;40431;52.198;9.902;2023-08-24T12:01:39;100557.94;;;28.25;49.14
17525;BME280;40431;52.198;9.902;2023-08-24T12:04:05;100550.41;;;28.19;46.63
17525;BME280;40431;52.198;9.902;2023-08-24T12:06:32;100545.94;;;28.18;45.30
17525;BME280;40431;52.198;9.902;2023-08-24T12:08:59;100546.78;;;28.25;48.26
17525;BME280;40431;52.198;9.902;2023-08-24T12:11:26;100532.41;;;28.28;48.09
17525;BME280;40431;52.198;9.902;2023-08-24T12:13:55;100531.81;;;28.39;51.89
17525;BME280;40431;52.198;9.902;2023-08-24T12:16:22;100525.41;;;28.45;48.39
17525;BME280;40431;52.198;9.902;2023-08-24T12:18:51;100516.16;;;28.52;49.56
17525;BME280;40431;52.198;9.902;2023-08-24T12:21:17;100509.75;;;28.58;49.85
17525;BME280;40431;52.198;9.902;2023-08-24T12:23:55;100494.94;;;28.64;49.37
17525;BME280;40431;52.198;9.902;2023-08-24T12:26:21;100490.25;;;28.71;49.83
17525;BME280;40431;52.198;9.902;2023-08-24T12:28:50;100483.81;;;28.77;49.37
17525;BME280;40431;52.198;9.902;2023-08-24T12:31:19;100482.94;;;28.83;48.44
17525;BME280;40431;52.198;9.902;2023-08-24T12:33:58;100473.69;;;28.90;49.55
17525;BME280;40431;52.198;9.902;2023-08-24T12:36:25;100460.19;;;28.93;49.13
17525;BME280;40431;52.198;9.902;2023-08-24T12:38:51;100454.16;;;28.96;49.10
17525;BME280;40431;52.198;9.902;2023-08-24T12:41:18;100443.81;;;29.04;48.90
17525;BME280;40431;52.198;9.902;2023-08-24T12:43:44;100449.00;;;29.00;48.13